sensor_id;sensor_type;location;lat;lon;timestamp;temperature;humidity
34833;DHT22;55941;50.800;4.342;2023-03-05T00:00:11;7.30;99.90
34833;DHT22;55941;50.800;4.342;2023-03-05T00:02:37;7.20;99.90
34833;DHT22;55941;50.800;4.342;2023-03-05T00:05:03;7.30;99.90
34833;DHT22;55941;50.800;4.342;2023-03-05T00:07:29;7.30;99.90
34833;DHT22;55941;50.800;4.342;2023-03-05T00:10:00;7.30;99.90
34833;DHT22;55941;50.800;4.342;2023-03-05T00:12:26;7.30;99.90
34833;DHT22;55941;50.800;4.342;2023-03-05T00:14:51;7.30;99.90
34833;DHT22;55941;50.800;4.342;2023-03-05T00:17:17;7.20;99.90
34833;DHT22;55941;50.800;4.342;2023-03-05T00:19:43;7.50;99.90
34833;DHT22;55941;50.800;4.342;2023-03-05T00:22:09;7.50;99.90
34833;DHT22;55941;50.800;4.342;2023-03-05T00:24:35;7.40;99.90
34833;DHT22;55941;50.800;4.342;2023-03-05T00:27:01;7.50;99.90
34833;DHT22;55941;50.800;4.342;2023-03-05T00:29:28;7.50;99.90
34833;DHT22;55941;50.800;4.342;2023-03-05T00:31:54;7.30;99.90
34833;DHT22;55941;50.800;4.342;2023-03-05T00:34:20;7.30;99.90
34833;DHT22;55941;50.800;4.342;2023-03-05T00:36:48;7.20;99.90
34833;DHT22;55941;50.800;4.342;2023-03-05T00:39:15;7.20;99.90
34833;DHT22;55941;50.800;4.342;2023-03-05T00:41:42;7.10;99.90
34833;DHT22;55941;50.800;4.342;2023-03-05T00:44:08;7.10;99.90
34833;DHT22;55941;50.800;4.342;2023-03-05T00:46:34;7.00;99.90
34833;DHT22;55941;50.800;4.342;2023-03-05T00:49:00;7.00;99.90
34833;DHT22;55941;50.800;4.342;2023-03-05T00:51:26;7.00;99.90
34833;DHT22;55941;50.800;4.342;2023-03-05T00:53:53;7.10;99.90
34833;DHT22;55941;50.800;4.342;2023-03-05T00:56:19;7.30;99.90
34833;DHT22;55941;50.800;4.342;2023-03-05T00:58:45;7.40;99.90
34833;DHT22;55941;50.800;4.342;2023-03-05T01:01:10;7.10;99.90
34833;DHT22;55941;50.800;4.342;2023-03-05T01:03:36;7.00;99.90
34833;DHT22;55941;50.800;4.342;2023-03-05T01:06:08;6.90;99.90
34833;DHT22;55941;50.800;4.342;2023-03-05T01:08:34;7.00;99.90
34833;DHT22;55941;50.800;4.342;2023-03-05T01:11:01;7.00;99.90
34833;DHT22;55941;50.800;4.342;2023-03-05T01:13:28;6.90;99.90
34833;DHT22;55941;50.800;4.342;2023-03-05T01:15:55;6.80;99.90
34833;DHT22;55941;50.800;4.342;2023-03-05T01:18:21;6.80;99.90
34833;DHT22;55941;50.800;4.342;2023-03-05T01:20:47;6.80;99.90
34833;DHT22;55941;50.800;4.342;2023-03-05T01:23:13;6.80;99.90
34833;DHT22;55941;50.800;4.342;2023-03-05T01:25:39;6.70;99.90
34833;DHT22;55941;50.800;4.342;2023-03-05T01:28:05;6.70;99.90
34833;DHT22;55941;50.800;4.342;2023-03-05T01:30:31;6.70;99.90
34833;DHT22;55941;50.800;4.342;2023-03-05T01:32:57;6.70;99.90
34833;DHT22;55941;50.800;4.342;2023-03-05T01:35:24;6.70;99.90
34833;DHT22;55941;50.800;4.342;2023-03-05T01:37:51;6.80;99.90
34833;DHT22;55941;50.800;4.342;2023-03-05T01:40:28;6.90;99.90
34833;DHT22;55941;50.800;4.342;2023-03-05T01:43:00;6.80;99.90
34833;DHT22;55941;50.800;4.342;2023-03-05T01:45:29;6.70;99.90
34833;DHT22;55941;50.800;4.342;2023-03-05T01:47:57;6.70;99.90
34833;DHT22;55941;50.800;4.342;2023-03-05T01:50:25;7.00;99.90
34833;DHT22;55941;50.800;4.342;2023-03-05T01:52:59;6.70;99.90
34833;DHT22;55941;50.800;4.342;2023-03-05T01:55:28;6.70;99.90
34833;DHT22;55941;50.800;4.342;2023-03-05T01:58:09;6.80;99.90
34833;DHT22;55941;50.800;4.342;2023-03-05T02:00:43;6.80;99.90
34833;DHT22;55941;50.800;4.342;2023-03-05T02:03:10;6.80;99.90
34833;DHT22;55941;50.800;4.342;2023-03-05T02:05:38;6.90;99.90
34833;DHT22;55941;50.800;4.342;2023-03-05T02:08:09;6.80;99.90
34833;DHT22;55941;50.800;4.342;2023-03-05T02:10:47;6.70;99.90
34833;DHT22;55941;50.800;4.342;2023-03-05T02:13:20;6.70;99.90
34833;DHT22;55941;50.800;4.342;2023-03-05T02:15:47;6.70;99.90
34833;DHT22;55941;50.800;4.342;2023-03-05T02:18:15;6.70;99.90
34833;DHT22;55941;50.800;4.342;2023-03-05T02:23:12;6.70;99.90
34833;DHT22;55941;50.800;4.342;2023-03-05T02:25:39;6.70;99.90
34833;DHT22;55941;50.800;4.342;2023-03-05T02:28:07;6.60;99.90
34833;DHT22;55941;50.800;4.342;2023-03-05T02:30:34;6.50;99.90
34833;DHT22;55941;50.800;4.342;2023-03-05T02:33:00;6.60;99.90
34833;DHT22;55941;50.800;4.342;2023-03-05T02:35:26;6.60;99.90
34833;DHT22;55941;50.800;4.342;2023-03-05T02:37:52;6.50;99.90
34833;DHT22;55941;50.800;4.342;2023-03-05T02:40:18;6.50;99.90
34833;DHT22;55941;50.800;4.342;2023-03-05T02:42:45;6.60;99.90
34833;DHT22;55941;50.800;4.342;2023-03-05T02:45:11;6.50;99.90
34833;DHT22;55941;50.800;4.342;2023-03-05T02:47:38;6.50;99.90
34833;DHT22;55941;50.800;4.342;2023-03-05T02:50:06;6.50;99.90
34833;DHT22;55941;50.800;4.342;2023-03-05T02:52:33;6.40;99.90
34833;DHT22;55941;50.800;4.342;2023-03-05T02:54:59;6.40;99.90
34833;DHT22;55941;50.800;4.342;2023-03-05T02:57:25;6.40;99.90
34833;DHT22;55941;50.800;4.342;2023-03-05T02:59:51;6.40;99.90
34833;DHT22;55941;50.800;4.342;2023-03-05T03:02:17;6.50;99.90
34833;DHT22;55941;50.800;4.342;2023-03-05T03:04:44;6.50;99.90
34833;DHT22;55941;50.800;4.342;2023-03-05T03:07:12;6.60;99.90
34833;DHT22;55941;50.800;4.342;2023-03-05T03:09:38;6.50;99.90
34833;DHT22;55941;50.800;4.342;2023-03-05T03:12:06;6.50;99.90
34833;DHT22;55941;50.800;4.342;2023-03-05T03:14:33;6.50;99.90
34833;DHT22;55941;50.800;4.342;2023-03-05T03:17:21;6.50;99.90
34833;DHT22;55941;50.800;4.342;2023-03-05T03:19:47;6.50;99.90
34833;DHT22;55941;50.800;4.342;2023-03-05T03:22:15;6.50;99.90
34833;DHT22;55941;50.800;4.342;2023-03-05T03:24:42;6.40;99.90
34833;DHT22;55941;50.800;4.342;2023-03-05T03:27:08;6.40;99.90
34833;DHT22;55941;50.800;4.342;2023-03-05T03:29:34;6.60;99.90
34833;DHT22;55941;50.800;4.342;2023-03-05T03:32:00;6.60;99.90
34833;DHT22;55941;50.800;4.342;2023-03-05T03:34:25;6.60;99.90
34833;DHT22;55941;50.800;4.342;2023-03-05T03:36:52;6.60;99.90
34833;DHT22;55941;50.800;4.342;2023-03-05T03:39:19;6.50;99.90
34833;DHT22;55941;50.800;4.342;2023-03-05T03:41:50;6.40;99.90
34833;DHT22;55941;50.800;4.342;2023-03-05T03:44:19;6.40;99.90
34833;DHT22;55941;50.800;4.342;2023-03-05T03:46:46;6.30;99.90
34833;DHT22;55941;50.800;4.342;2023-03-05T03:49:21;6.30;99.90
34833;DHT22;55941;50.800;4.342;2023-03-05T03:51:48;6.20;99.90
34833;DHT22;55941;50.800;4.342;2023-03-05T03:54:16;6.30;99.90
34833;DHT22;55941;50.800;4.342;2023-03-05T03:56:42;6.40;99.90
34833;DHT22;55941;50.800;4.342;2023-03-05T03:59:09;6.40;99.90
34833;DHT22;55941;50.800;4.342;2023-03-05T04:01:35;6.60;99.90
34833;DHT22;55941;50.800;4.342;2023-03-05T04:04:02;6.80;99.90
34833;DHT22;55941;50.800;4.342;2023-03-05T04:06:27;6.60;99.90
34833;DHT22;55941;50.800;4.342;2023-03-05T04:08:54;6.50;99.90
34833;DHT22;55941;50.800;4.342;2023-03-05T04:11:21;6.60;99.90
34833;DHT22;55941;50.800;4.342;2023-03-05T04:13:47;6.80;99.90
34833;DHT22;55941;50.800;4.342;2023-03-05T04:16:14;6.90;99.90
34833;DHT22;55941;50.800;4.342;2023-03-05T04:18:41;6.80;99.90
34833;DHT22;55941;50.800;4.342;2023-03-05T04:21:08;6.50;99.90
34833;DHT22;55941;50.800;4.342;2023-03-05T04:23:34;6.50;99.90
34833;DHT22;55941;50.800;4.342;2023-03-05T04:26:00;6.60;99.90
34833;DHT22;55941;50.800;4.342;2023-03-05T04:28:26;6.60;99.90
34833;DHT22;55941;50.800;4.342;2023-03-05T04:30:52;6.70;99.90
34833;DHT22;55941;50.800;4.342;2023-03-05T04:33:19;6.70;99.90
34833;DHT22;55941;50.800;4.342;2023-03-05T04:35:45;6.70;99.90
34833;DHT22;55941;50.800;4.342;2023-03-05T04:38:11;6.50;99.90
34833;DHT22;55941;50.800;4.342;2023-03-05T04:40:37;6.40;99.90
34833;DHT22;55941;50.800;4.342;2023-03-05T04:43:05;6.30;99.90
34833;DHT22;55941;50.800;4.342;2023-03-05T04:45:31;6.10;99.90
34833;DHT22;55941;50.800;4.342;2023-03-05T04:47:57;6.20;99.90
34833;DHT22;55941;50.800;4.342;2023-03-05T04:50:24;6.20;99.90
34833;DHT22;55941;50.800;4.342;2023-03-05T04:52:49;6.30;99.90
34833;DHT22;55941;50.800;4.342;2023-03-05T04:55:16;6.30;99.90
34833;DHT22;55941;50.800;4.342;2023-03-05T04:57:43;5.90;99.90
34833;DHT22;55941;50.800;4.342;2023-03-05T05:00:12;5.80;99.90
34833;DHT22;55941;50.800;4.342;2023-03-05T05:02:40;5.70;99.90
34833;DHT22;55941;50.800;4.342;2023-03-05T05:05:07;5.80;99.90
34833;DHT22;55941;50.800;4.342;2023-03-05T05:07:34;5.80;99.90
34833;DHT22;55941;50.800;4.342;2023-03-05T05:10:00;5.90;99.90
34833;DHT22;55941;50.800;4.342;2023-03-05T05:12:30;6.00;99.90
34833;DHT22;55941;50.800;4.342;2023-03-05T05:14:57;6.30;99.90
34833;DHT22;55941;50.800;4.342;2023-03-05T05:17:22;6.50;99.90
34833;DHT22;55941;50.800;4.342;2023-03-05T05:19:48;6.20;99.90
34833;DHT22;55941;50.800;4.342;2023-03-05T05:22:14;6.30;99.90
34833;DHT22;55941;50.800;4.342;2023-03-05T05:24:40;6.20;99.90
34833;DHT22;55941;50.800;4.342;2023-03-05T05:27:06;6.20;99.90
34833;DHT22;55941;50.800;4.342;2023-03-05T05:29:33;6.00;99.90
34833;DHT22;55941;50.800;4.342;2023-03-05T05:31:59;6.00;99.90
34833;DHT22;55941;50.800;4.342;2023-03-05T05:34:25;6.00;99.90
34833;DHT22;55941;50.800;4.342;2023-03-05T05:36:52;5.90;99.90
34833;DHT22;55941;50.800;4.342;2023-03-05T05:39:18;6.10;99.90
34833;DHT22;55941;50.800;4.342;2023-03-05T05:41:44;6.00;99.90
34833;DHT22;55941;50.800;4.342;2023-03-05T05:44:11;5.90;99.90
34833;DHT22;55941;50.800;4.342;2023-03-05T05:46:37;6.00;99.90
34833;DHT22;55941;50.800;4.342;2023-03-05T05:49:03;6.00;99.90
34833;DHT22;55941;50.800;4.342;2023-03-05T05:51:29;6.00;99.90
34833;DHT22;55941;50.800;4.342;2023-03-05T05:53:56;5.90;99.90
34833;DHT22;55941;50.800;4.342;2023-03-05T05:56:22;5.80;99.90
34833;DHT22;55941;50.800;4.342;2023-03-05T05:58:48;5.90;99.90
34833;DHT22;55941;50.800;4.342;2023-03-05T06:01:27;5.90;99.90
34833;DHT22;55941;50.800;4.342;2023-03-05T06:03:54;6.10;99.90
34833;DHT22;55941;50.800;4.342;2023-03-05T06:06:22;5.80;99.90
34833;DHT22;55941;50.800;4.342;2023-03-05T06:08:49;5.80;99.90
34833;DHT22;55941;50.800;4.342;2023-03-05T06:11:16;5.70;99.90
34833;DHT22;55941;50.800;4.342;2023-03-05T06:13:41;5.70;99.90
34833;DHT22;55941;50.800;4.342;2023-03-05T06:16:11;5.80;99.90
34833;DHT22;55941;50.800;4.342;2023-03-05T06:18:38;6.00;99.90
34833;DHT22;55941;50.800;4.342;2023-03-05T06:21:11;5.80;99.90
34833;DHT22;55941;50.800;4.342;2023-03-05T06:23:37;5.90;99.90
34833;DHT22;55941;50.800;4.342;2023-03-05T06:26:05;5.80;99.90
34833;DHT22;55941;50.800;4.342;2023-03-05T06:28:32;6.00;99.90
34833;DHT22;55941;50.800;4.342;2023-03-05T06:31:00;6.00;99.90
34833;DHT22;55941;50.800;4.342;2023-03-05T06:33:27;6.10;99.90
34833;DHT22;55941;50.800;4.342;2023-03-05T06:35:54;5.90;99.90
34833;DHT22;55941;50.800;4.342;2023-03-05T06:38:20;5.80;99.90
34833;DHT22;55941;50.800;4.342;2023-03-05T06:40:46;5.80;99.90
34833;DHT22;55941;50.800;4.342;2023-03-05T06:43:12;5.90;99.90
34833;DHT22;55941;50.800;4.342;2023-03-05T06:45:38;6.00;99.90
34833;DHT22;55941;50.800;4.342;2023-03-05T06:48:05;6.10;99.90
34833;DHT22;55941;50.800;4.342;2023-03-05T06:50:34;6.00;99.90
34833;DHT22;55941;50.800;4.342;2023-03-05T06:53:01;5.80;99.90
34833;DHT22;55941;50.800;4.342;2023-03-05T06:55:27;5.70;99.90
34833;DHT22;55941;50.800;4.342;2023-03-05T06:57:53;5.90;99.90
34833;DHT22;55941;50.800;4.342;2023-03-05T07:00:19;5.60;99.90
34833;DHT22;55941;50.800;4.342;2023-03-05T07:02:45;5.70;99.90
34833;DHT22;55941;50.800;4.342;2023-03-05T07:05:11;5.80;99.90
34833;DHT22;55941;50.800;4.342;2023-03-05T07:07:38;5.80;99.90
34833;DHT22;55941;50.800;4.342;2023-03-05T07:10:05;5.80;99.90
34833;DHT22;55941;50.800;4.342;2023-03-05T07:12:34;5.90;99.90
34833;DHT22;55941;50.800;4.342;2023-03-05T07:15:01;6.00;99.90
34833;DHT22;55941;50.800;4.342;2023-03-05T07:17:27;5.90;99.90
34833;DHT22;55941;50.800;4.342;2023-03-05T07:19:53;5.90;99.90
34833;DHT22;55941;50.800;4.342;2023-03-05T07:22:19;6.00;99.90
34833;DHT22;55941;50.800;4.342;2023-03-05T07:24:45;6.00;99.90
34833;DHT22;55941;50.800;4.342;2023-03-05T07:27:11;6.10;99.90
34833;DHT22;55941;50.800;4.342;2023-03-05T07:29:36;6.20;99.90
34833;DHT22;55941;50.800;4.342;2023-03-05T07:32:03;6.20;99.90
34833;DHT22;55941;50.800;4.342;2023-03-05T07:34:28;6.20;99.90
34833;DHT22;55941;50.800;4.342;2023-03-05T07:36:54;6.00;99.90
34833;DHT22;55941;50.800;4.342;2023-03-05T07:39:20;6.20;99.90
34833;DHT22;55941;50.800;4.342;2023-03-05T07:41:46;6.00;99.90
34833;DHT22;55941;50.800;4.342;2023-03-05T07:44:14;6.00;99.90
34833;DHT22;55941;50.800;4.342;2023-03-05T07:46:41;6.10;99.90
34833;DHT22;55941;50.800;4.342;2023-03-05T07:49:07;6.20;99.90
34833;DHT22;55941;50.800;4.342;2023-03-05T07:51:33;6.00;99.90
34833;DHT22;55941;50.800;4.342;2023-03-05T07:53:59;5.90;99.90
34833;DHT22;55941;50.800;4.342;2023-03-05T07:56:29;6.00;99.90
34833;DHT22;55941;50.800;4.342;2023-03-05T07:58:58;6.00;99.90
34833;DHT22;55941;50.800;4.342;2023-03-05T08:01:24;6.20;99.90
34833;DHT22;55941;50.800;4.342;2023-03-05T08:03:50;6.20;99.90
34833;DHT22;55941;50.800;4.342;2023-03-05T08:06:17;6.20;99.90
34833;DHT22;55941;50.800;4.342;2023-03-05T08:08:43;6.20;99.90
34833;DHT22;55941;50.800;4.342;2023-03-05T08:11:11;6.20;99.90
34833;DHT22;55941;50.800;4.342;2023-03-05T08:13:37;6.30;99.90
34833;DHT22;55941;50.800;4.342;2023-03-05T08:16:05;6.30;99.90
34833;DHT22;55941;50.800;4.342;2023-03-05T08:18:31;6.10;99.90
34833;DHT22;55941;50.800;4.342;2023-03-05T08:20:57;6.10;99.90
34833;DHT22;55941;50.800;4.342;2023-03-05T08:23:25;6.20;99.90
34833;DHT22;55941;50.800;4.342;2023-03-05T08:25:51;6.10;99.90
34833;DHT22;55941;50.800;4.342;2023-03-05T08:28:17;6.20;99.90
34833;DHT22;55941;50.800;4.342;2023-03-05T08:30:47;6.30;99.90
34833;DHT22;55941;50.800;4.342;2023-03-05T08:33:14;6.30;99.90
34833;DHT22;55941;50.800;4.342;2023-03-05T08:35:43;6.40;99.90
34833;DHT22;55941;50.800;4.342;2023-03-05T08:38:09;6.50;99.90
34833;DHT22;55941;50.800;4.342;2023-03-05T08:40:35;6.60;99.90
34833;DHT22;55941;50.800;4.342;2023-03-05T08:43:13;6.60;99.90
34833;DHT22;55941;50.800;4.342;2023-03-05T08:45:39;6.60;99.90
34833;DHT22;55941;50.800;4.342;2023-03-05T08:48:05;6.90;99.90
34833;DHT22;55941;50.800;4.342;2023-03-05T08:50:31;6.90;99.90
34833;DHT22;55941;50.800;4.342;2023-03-05T08:52:57;6.80;99.90
34833;DHT22;55941;50.800;4.342;2023-03-05T08:55:24;6.80;99.90
34833;DHT22;55941;50.800;4.342;2023-03-05T08:57:52;6.90;99.90
34833;DHT22;55941;50.800;4.342;2023-03-05T09:00:19;7.00;99.90
34833;DHT22;55941;50.800;4.342;2023-03-05T09:02:45;7.10;99.90
34833;DHT22;55941;50.800;4.342;2023-03-05T09:05:13;7.10;99.90
34833;DHT22;55941;50.800;4.342;2023-03-05T09:07:39;7.20;99.90
34833;DHT22;55941;50.800;4.342;2023-03-05T09:10:13;7.30;99.90
34833;DHT22;55941;50.800;4.342;2023-03-05T09:12:40;7.10;99.90
34833;DHT22;55941;50.800;4.342;2023-03-05T09:15:07;7.20;99.90
34833;DHT22;55941;50.800;4.342;2023-03-05T09:17:37;7.20;99.90
34833;DHT22;55941;50.800;4.342;2023-03-05T09:20:05;7.30;99.90
34833;DHT22;55941;50.800;4.342;2023-03-05T09:22:31;7.00;99.90
34833;DHT22;55941;50.800;4.342;2023-03-05T09:25:00;7.20;99.90
34833;DHT22;55941;50.800;4.342;2023-03-05T09:27:26;7.30;99.90
34833;DHT22;55941;50.800;4.342;2023-03-05T09:29:52;7.10;99.90
34833;DHT22;55941;50.800;4.342;2023-03-05T09:32:18;7.00;99.90
34833;DHT22;55941;50.800;4.342;2023-03-05T09:34:44;7.10;99.90
34833;DHT22;55941;50.800;4.342;2023-03-05T09:37:10;7.10;99.90
34833;DHT22;55941;50.800;4.342;2023-03-05T09:39:36;7.20;99.90
34833;DHT22;55941;50.800;4.342;2023-03-05T09:42:19;7.20;99.90
34833;DHT22;55941;50.800;4.342;2023-03-05T09:50:53;7.10;99.90
34833;DHT22;55941;50.800;4.342;2023-03-05T09:53:48;7.30;99.90
34833;DHT22;55941;50.800;4.342;2023-03-05T10:00:06;7.40;99.90
34833;DHT22;55941;50.800;4.342;2023-03-05T10:02:47;7.30;99.90
34833;DHT22;55941;50.800;4.342;2023-03-05T10:13:04;6.70;99.90
34833;DHT22;55941;50.800;4.342;2023-03-05T10:21:52;6.80;99.90
34833;DHT22;55941;50.800;4.342;2023-03-05T10:27:06;6.80;99.90
34833;DHT22;55941;50.800;4.342;2023-03-05T10:29:54;6.70;99.90
34833;DHT22;55941;50.800;4.342;2023-03-05T10:32:35;6.60;99.90
34833;DHT22;55941;50.800;4.342;2023-03-05T10:38:07;6.70;99.90
34833;DHT22;55941;50.800;4.342;2023-03-05T10:40:50;6.60;99.90
34833;DHT22;55941;50.800;4.342;2023-03-05T10:46:14;6.90;99.90
34833;DHT22;55941;50.800;4.342;2023-03-05T10:48:52;7.00;99.90
34833;DHT22;55941;50.800;4.342;2023-03-05T10:51:38;7.00;99.90
34833;DHT22;55941;50.800;4.342;2023-03-05T10:57:01;7.10;99.90
34833;DHT22;55941;50.800;4.342;2023-03-05T10:59:27;7.00;99.90
34833;DHT22;55941;50.800;4.342;2023-03-05T11:02:07;7.10;99.90
34833;DHT22;55941;50.800;4.342;2023-03-05T11:04:38;7.20;99.90
34833;DHT22;55941;50.800;4.342;2023-03-05T11:09:42;7.40;99.90
34833;DHT22;55941;50.800;4.342;2023-03-05T11:12:19;7.10;99.90
34833;DHT22;55941;50.800;4.342;2023-03-05T11:15:20;7.10;99.90
34833;DHT22;55941;50.800;4.342;2023-03-05T11:18:24;7.40;99.90
34833;DHT22;55941;50.800;4.342;2023-03-05T11:24:39;7.50;99.90
34833;DHT22;55941;50.800;4.342;2023-03-05T11:27:53;7.60;99.90
34833;DHT22;55941;50.800;4.342;2023-03-05T11:30:30;7.50;99.90
34833;DHT22;55941;50.800;4.342;2023-03-05T11:35:38;7.70;99.90
34833;DHT22;55941;50.800;4.342;2023-03-05T11:38:06;7.90;99.90
34833;DHT22;55941;50.800;4.342;2023-03-05T11:40:40;7.80;99.90
34833;DHT22;55941;50.800;4.342;2023-03-05T11:43:15;7.80;99.90
34833;DHT22;55941;50.800;4.342;2023-03-05T11:45:41;8.00;99.90
34833;DHT22;55941;50.800;4.342;2023-03-05T11:51:02;8.00;99.90
34833;DHT22;55941;50.800;4.342;2023-03-05T11:53:33;8.00;99.90
34833;DHT22;55941;50.800;4.342;2023-03-05T11:56:26;8.10;99.90
34833;DHT22;55941;50.800;4.342;2023-03-05T11:59:15;8.00;99.90
34833;DHT22;55941;50.800;4.342;2023-03-05T12:01:49;7.90;99.90
34833;DHT22;55941;50.800;4.342;2023-03-05T12:04:18;7.90;99.90
34833;DHT22;55941;50.800;4.342;2023-03-05T12:06:54;8.00;99.90
34833;DHT22;55941;50.800;4.342;2023-03-05T12:09:41;8.10;99.90
34833;DHT22;55941;50.800;4.342;2023-03-05T12:12:34;7.90;99.90
34833;DHT22;55941;50.800;4.342;2023-03-05T12:18:14;7.90;99.90
34833;DHT22;55941;50.800;4.342;2023-03-05T12:21:02;8.10;99.90
34833;DHT22;55941;50.800;4.342;2023-03-05T12:23:44;8.10;99.90
34833;DHT22;55941;50.800;4.342;2023-03-05T12:26:10;8.20;99.90
34833;DHT22;55941;50.800;4.342;2023-03-05T12:31:36;8.10;99.90
34833;DHT22;55941;50.800;4.342;2023-03-05T12:34:34;8.10;99.90
34833;DHT22;55941;50.800;4.342;2023-03-05T12:37:01;8.20;99.90
34833;DHT22;55941;50.800;4.342;2023-03-05T12:53:07;8.20;99.90
34833;DHT22;55941;50.800;4.342;2023-03-05T12:56:18;8.10;99.90
34833;DHT22;55941;50.800;4.342;2023-03-05T12:58:41;8.00;99.90
34833;DHT22;55941;50.800;4.342;2023-03-05T13:01:18;8.00;99.90
34833;DHT22;55941;50.800;4.342;2023-03-05T13:03:55;7.80;99.90
34833;DHT22;55941;50.800;4.342;2023-03-05T13:06:30;7.60;99.90
34833;DHT22;55941;50.800;4.342;2023-03-05T13:09:23;7.30;99.90
34833;DHT22;55941;50.800;4.342;2023-03-05T13:11:51;7.20;99.90
34833;DHT22;55941;50.800;4.342;2023-03-05T13:16:54;6.80;99.90
34833;DHT22;55941;50.800;4.342;2023-03-05T13:19:21;6.90;99.90
34833;DHT22;55941;50.800;4.342;2023-03-05T13:22:08;6.80;99.90
34833;DHT22;55941;50.800;4.342;2023-03-05T13:24:46;6.80;99.90
34833;DHT22;55941;50.800;4.342;2023-03-05T13:27:31;6.90;99.90
34833;DHT22;55941;50.800;4.342;2023-03-05T13:29:58;7.10;99.90
34833;DHT22;55941;50.800;4.342;2023-03-05T13:32:27;7.30;99.90
34833;DHT22;55941;50.800;4.342;2023-03-05T13:34:58;7.40;99.90
34833;DHT22;55941;50.800;4.342;2023-03-05T13:37:26;7.40;99.90
34833;DHT22;55941;50.800;4.342;2023-03-05T13:39:58;7.50;99.90
34833;DHT22;55941;50.800;4.342;2023-03-05T13:42:30;7.50;99.90
34833;DHT22;55941;50.800;4.342;2023-03-05T13:44:59;7.50;99.90
34833;DHT22;55941;50.800;4.342;2023-03-05T13:47:30;7.60;99.90
34833;DHT22;55941;50.800;4.342;2023-03-05T13:49:58;7.60;99.90
34833;DHT22;55941;50.800;4.342;2023-03-05T13:52:29;7.70;99.90
34833;DHT22;55941;50.800;4.342;2023-03-05T13:54:57;7.60;99.90
34833;DHT22;55941;50.800;4.342;2023-03-05T13:59:58;7.40;99.90
34833;DHT22;55941;50.800;4.342;2023-03-05T14:02:26;7.40;99.90
34833;DHT22;55941;50.800;4.342;2023-03-05T14:04:54;7.50;99.90
34833;DHT22;55941;50.800;4.342;2023-03-05T14:09:49;7.30;99.90
34833;DHT22;55941;50.800;4.342;2023-03-05T14:12:35;7.30;99.90
34833;DHT22;55941;50.800;4.342;2023-03-05T14:15:30;7.00;99.90
34833;DHT22;55941;50.800;4.342;2023-03-05T14:20:56;6.90;99.90
34833;DHT22;55941;50.800;4.342;2023-03-05T14:34:39;7.10;99.90
34833;DHT22;55941;50.800;4.342;2023-03-05T14:37:17;7.00;99.90
34833;DHT22;55941;50.800;4.342;2023-03-05T14:42:31;7.10;99.90
34833;DHT22;55941;50.800;4.342;2023-03-05T14:45:09;7.20;99.90
34833;DHT22;55941;50.800;4.342;2023-03-05T14:47:37;7.30;99.90
34833;DHT22;55941;50.800;4.342;2023-03-05T14:50:04;7.20;99.90
34833;DHT22;55941;50.800;4.342;2023-03-05T14:52:30;7.40;99.90
34833;DHT22;55941;50.800;4.342;2023-03-05T14:54:56;7.30;99.90
34833;DHT22;55941;50.800;4.342;2023-03-05T14:57:25;7.20;99.90
34833;DHT22;55941;50.800;4.342;2023-03-05T14:59:51;7.20;99.90
34833;DHT22;55941;50.800;4.342;2023-03-05T15:02:24;7.10;99.90
34833;DHT22;55941;50.800;4.342;2023-03-05T15:04:50;7.00;99.90
34833;DHT22;55941;50.800;4.342;2023-03-05T15:07:28;7.20;99.90
34833;DHT22;55941;50.800;4.342;2023-03-05T15:09:55;7.20;99.90
34833;DHT22;55941;50.800;4.342;2023-03-05T15:12:21;7.10;99.90
34833;DHT22;55941;50.800;4.342;2023-03-05T15:14:51;7.00;99.90
34833;DHT22;55941;50.800;4.342;2023-03-05T15:17:32;7.10;99.90
34833;DHT22;55941;50.800;4.342;2023-03-05T15:19:58;7.10;99.90
34833;DHT22;55941;50.800;4.342;2023-03-05T15:22:26;7.30;99.90
34833;DHT22;55941;50.800;4.342;2023-03-05T15:24:52;7.20;99.90
34833;DHT22;55941;50.800;4.342;2023-03-05T15:27:18;7.10;99.90
34833;DHT22;55941;50.800;4.342;2023-03-05T15:29:46;7.00;99.90
34833;DHT22;55941;50.800;4.342;2023-03-05T15:32:12;7.10;99.90
34833;DHT22;55941;50.800;4.342;2023-03-05T15:34:40;7.10;99.90
34833;DHT22;55941;50.800;4.342;2023-03-05T15:37:08;7.10;99.90
34833;DHT22;55941;50.800;4.342;2023-03-05T15:39:37;7.00;99.90
34833;DHT22;55941;50.800;4.342;2023-03-05T15:42:02;7.10;99.90
34833;DHT22;55941;50.800;4.342;2023-03-05T15:44:33;7.20;99.90
34833;DHT22;55941;50.800;4.342;2023-03-05T15:46:59;7.20;99.90
34833;DHT22;55941;50.800;4.342;2023-03-05T15:49:28;7.30;99.90
34833;DHT22;55941;50.800;4.342;2023-03-05T15:51:54;7.00;99.90
34833;DHT22;55941;50.800;4.342;2023-03-05T15:54:24;6.80;99.90
34833;DHT22;55941;50.800;4.342;2023-03-05T15:56:52;6.80;99.90
34833;DHT22;55941;50.800;4.342;2023-03-05T15:59:18;6.80;99.90
34833;DHT22;55941;50.800;4.342;2023-03-05T16:01:50;6.80;99.90
34833;DHT22;55941;50.800;4.342;2023-03-05T16:04:18;6.80;99.90
34833;DHT22;55941;50.800;4.342;2023-03-05T16:06:45;6.80;99.90
34833;DHT22;55941;50.800;4.342;2023-03-05T16:09:15;6.80;99.90
34833;DHT22;55941;50.800;4.342;2023-03-05T16:11:43;6.80;99.90
34833;DHT22;55941;50.800;4.342;2023-03-05T16:14:19;6.60;99.90
34833;DHT22;55941;50.800;4.342;2023-03-05T16:16:51;6.70;99.90
34833;DHT22;55941;50.800;4.342;2023-03-05T16:19:18;6.40;99.90
34833;DHT22;55941;50.800;4.342;2023-03-05T16:21:46;6.40;99.90
34833;DHT22;55941;50.800;4.342;2023-03-05T16:24:12;6.20;99.90
34833;DHT22;55941;50.800;4.342;2023-03-05T16:26:40;6.30;99.90
34833;DHT22;55941;50.800;4.342;2023-03-05T16:29:09;6.10;99.90
34833;DHT22;55941;50.800;4.342;2023-03-05T16:31:42;6.00;99.90
34833;DHT22;55941;50.800;4.342;2023-03-05T16:34:22;6.10;99.90
34833;DHT22;55941;50.800;4.342;2023-03-05T16:36:50;6.30;99.90
34833;DHT22;55941;50.800;4.342;2023-03-05T16:39:19;6.30;99.90
34833;DHT22;55941;50.800;4.342;2023-03-05T16:41:45;6.40;99.90
34833;DHT22;55941;50.800;4.342;2023-03-05T16:44:11;6.50;99.90
34833;DHT22;55941;50.800;4.342;2023-03-05T16:46:38;6.40;99.90
34833;DHT22;55941;50.800;4.342;2023-03-05T16:49:07;6.40;99.90
34833;DHT22;55941;50.800;4.342;2023-03-05T16:51:34;6.40;99.90
34833;DHT22;55941;50.800;4.342;2023-03-05T16:54:00;6.50;99.90
34833;DHT22;55941;50.800;4.342;2023-03-05T16:56:26;6.40;99.90
34833;DHT22;55941;50.800;4.342;2023-03-05T16:58:54;6.50;99.90
34833;DHT22;55941;50.800;4.342;2023-03-05T17:01:21;6.40;99.90
34833;DHT22;55941;50.800;4.342;2023-03-05T17:03:48;6.30;99.90
34833;DHT22;55941;50.800;4.342;2023-03-05T17:06:20;6.20;99.90
34833;DHT22;55941;50.800;4.342;2023-03-05T17:08:48;6.30;99.90
34833;DHT22;55941;50.800;4.342;2023-03-05T17:11:14;6.20;99.90
34833;DHT22;55941;50.800;4.342;2023-03-05T17:13:41;6.10;99.90
34833;DHT22;55941;50.800;4.342;2023-03-05T17:16:09;6.20;99.90
34833;DHT22;55941;50.800;4.342;2023-03-05T17:18:36;6.20;99.90
34833;DHT22;55941;50.800;4.342;2023-03-05T17:21:05;6.30;99.90
34833;DHT22;55941;50.800;4.342;2023-03-05T17:23:33;6.40;99.90
34833;DHT22;55941;50.800;4.342;2023-03-05T17:26:12;6.30;99.90
34833;DHT22;55941;50.800;4.342;2023-03-05T17:28:39;6.30;99.90
34833;DHT22;55941;50.800;4.342;2023-03-05T17:31:07;6.30;99.90